Peotone Weather
Peotone-Weather Station Historical Data
 
Daily Summary for April 13, 2021 Units:  English    Metric   Both
Daily Weekly Monthly Yearly Custom
  Current: High: Low: Average:
Temperature: 41.5 °F 44.4 °F 41.4 °F 42.6 °F
Dew Point: 34.8 °F 37.3 °F 34.8 °F 36.2 °F
Humidity: 77% 80% 74% 78%
Wind Speed: 6mph 9.1mph 2.4mph 5mph
Wind Gust: 11.5mph 13.8mph - -
WindWNW - - West
Pressure: 30.07 in 30.07 in 30.02 in -
Precipitation: 0.00 in      
Historical Graphs
 
 
Tabular Data for April 13, 2021
Time Temperature Dew Point Pressure Wind Wind Speed Wind Gust Humidity Rainfall Rate (Hourly) solar
00:04 44.4 °F 37.3 °F 30.02 in West 3.4 mph 5.8 mph 76% 0.00 in 0 W/m2
00:09 44.2 °F 37.2 °F 30.02 in West 3 mph 5.8 mph 76% 0.00 in 0 W/m2
00:14 44.2 °F 37.3 °F 30.02 in West 3.5 mph 4.6 mph 76.6% 0.00 in 0 W/m2
00:19 44 °F 37.3 °F 30.02 in West 3 mph 5.8 mph 77% 0.00 in 0 W/m2
00:24 43.7 °F 37.1 °F 30.02 in West 3.5 mph 5.8 mph 77.4% 0.00 in 0 W/m2
00:29 43.5 °F 37.2 °F 30.02 in West 3.1 mph 4.6 mph 78.2% 0.00 in 0 W/m2
00:34 43.5 °F 37.1 °F 30.02 in West 3.3 mph 4.6 mph 78% 0.00 in 0 W/m2
00:39 43.6 °F 37.2 °F 30.02 in West 3.5 mph 5.8 mph 78% 0.00 in 0 W/m2
00:44 43.4 °F 36.8 °F 30.02 in West 2.9 mph 4.6 mph 77.5% 0.00 in 0 W/m2
00:49 43.1 °F 36.8 °F 30.02 in West 2.4 mph 4.6 mph 78.2% 0.00 in 0 W/m2
00:54 43 °F 37 °F 30.02 in West 3.5 mph 4.6 mph 79% 0.00 in 0 W/m2
00:59 43.3 °F 37 °F 30.02 in West 4.6 mph 6.9 mph 78.5% 0.00 in 0 W/m2
01:04 43.5 °F 37.1 °F 30.02 in West 5.7 mph 8.1 mph 78% 0.00 in 0 W/m2
01:09 43.5 °F 36.8 °F 30.02 in West 4.3 mph 8.1 mph 77.1% 0.00 in 0 W/m2
01:14 43.4 °F 36.7 °F 30.02 in West 4 mph 6.9 mph 77% 0.00 in 0 W/m2
01:19 43.2 °F 36.6 °F 30.02 in WSW 3.4 mph 6.9 mph 77.3% 0.00 in 0 W/m2
01:24 42.9 °F 36.6 °F 30.02 in WSW 4 mph 5.8 mph 78% 0.00 in 0 W/m2
01:29 42.9 °F 36.6 °F 30.02 in West 3.7 mph 6.9 mph 78.2% 0.00 in 0 W/m2
01:34 42.8 °F 36.5 °F 30.02 in West 5.7 mph 8.1 mph 78.3% 0.00 in 0 W/m2
01:39 42.8 °F 36.4 °F 30.02 in West 4.8 mph 8.1 mph 78% 0.00 in 0 W/m2
01:44 42.7 °F 36.5 °F 30.02 in West 4.5 mph 6.9 mph 78.6% 0.00 in 0 W/m2
01:49 42.6 °F 36.6 °F 30.02 in West 3.7 mph 6.9 mph 79% 0.00 in 0 W/m2
01:54 42.4 °F 36.4 °F 30.02 in West 4.2 mph 6.9 mph 79% 0.00 in 0 W/m2
01:59 42.2 °F 36.2 °F 30.03 in West 4.2 mph 6.9 mph 79% 0.00 in 0 W/m2
02:04 42.1 °F 36.2 °F 30.03 in West 3.7 mph 5.8 mph 79.7% 0.00 in 0 W/m2
02:09 42 °F 36.3 °F 30.03 in West 3.3 mph 6.9 mph 80% 0.00 in 0 W/m2
02:14 42.2 °F 36.3 °F 30.03 in West 4.8 mph 6.9 mph 79.6% 0.00 in 0 W/m2
02:19 42.2 °F 36.2 °F 30.03 in WSW 3 mph 6.9 mph 79% 0.00 in 0 W/m2
02:24 42 °F 36.2 °F 30.04 in WSW 3.1 mph 5.8 mph 79.7% 0.00 in 0 W/m2
02:29 41.8 °F 36.1 °F 30.04 in West 3.6 mph 5.8 mph 80% 0.00 in 0 W/m2
02:34 41.7 °F 36 °F 30.04 in WSW 4.1 mph 6.9 mph 80% 0.00 in 0 W/m2
02:39 41.8 °F 36.1 °F 30.04 in WSW 5.1 mph 8.1 mph 80% 0.00 in 0 W/m2
02:44 42 °F 36.2 °F 30.04 in West 4.8 mph 8.1 mph 79.8% 0.00 in 0 W/m2
02:49 42.1 °F 36.1 °F 30.05 in West 6.2 mph 10.3 mph 79% 0.00 in 0 W/m2
02:54 42.2 °F 36.2 °F 30.05 in West 5.4 mph 10.3 mph 79% 0.00 in 0 W/m2
02:59 42.2 °F 36.2 °F 30.05 in West 5.7 mph 9.2 mph 79% 0.00 in 0 W/m2
03:04 42.2 °F 36.1 °F 30.05 in WSW 5.3 mph 9.2 mph 79% 0.00 in 0 W/m2
03:09 42.1 °F 36 °F 30.05 in West 5.5 mph 9.2 mph 79% 0.00 in 0 W/m2
03:14 42 °F 35.9 °F 30.05 in West 6 mph 9.2 mph 79% 0.00 in 0 W/m2
03:19 41.9 °F 35.9 °F 30.05 in West 4 mph 9.2 mph 79% 0.00 in 0 W/m2
03:24 41.7 °F 35.7 °F 30.05 in West 4.7 mph 6.9 mph 79% 0.00 in 0 W/m2
03:29 41.6 °F 35.5 °F 30.05 in West 4.4 mph 6.9 mph 79% 0.00 in 0 W/m2
03:34 41.5 °F 35.5 °F 30.05 in West 5.5 mph 6.9 mph 79.2% 0.00 in 0 W/m2
03:39 41.4 °F 35.6 °F 30.05 in West 6.4 mph 8.1 mph 79.8% 0.00 in 0 W/m2
03:44 41.6 °F 35.5 °F 30.05 in West 6.6 mph 10.3 mph 79% 0.00 in 0 W/m2
03:49 42 °F 35.6 °F 30.05 in West 8.4 mph 12.6 mph 77.7% 0.00 in 0 W/m2
03:54 42.4 °F 35.5 °F 30.05 in West 8.1 mph 12.6 mph 76.4% 0.00 in 0 W/m2
03:59 42.6 °F 35.6 °F 30.05 in West 7.5 mph 12.6 mph 76% 0.00 in 0 W/m2
04:04 42.6 °F 35.4 °F 30.05 in West 6.9 mph 12.6 mph 75.4% 0.00 in 0 W/m2
04:09 42.7 °F 35.4 °F 30.06 in West 7.1 mph 10.3 mph 75% 0.00 in 0 W/m2
04:14 42.9 °F 35.5 °F 30.06 in WNW 5.9 mph 10.3 mph 75% 0.00 in 0 W/m2
04:19 43 °F 35.6 °F 30.06 in WNW 6.3 mph 10.3 mph 75% 0.00 in 0 W/m2
04:24 43.1 °F 35.5 °F 30.06 in WNW 6.4 mph 10.3 mph 74.3% 0.00 in 0 W/m2
04:29 43.3 °F 35.6 °F 30.06 in WNW 7.3 mph 10.3 mph 74% 0.00 in 0 W/m2
04:34 43.2 °F 35.5 °F 30.06 in WNW 8.7 mph 13.8 mph 74.1% 0.00 in 0 W/m2
04:39 43 °F 35.5 °F 30.07 in WNW 9.1 mph 13.8 mph 74.6% 0.00 in 0 W/m2
04:44 42.8 °F 35.3 °F 30.07 in WNW 7.4 mph 13.8 mph 74.6% 0.00 in 0 W/m2
04:49 42.3 °F 35.1 °F 30.07 in WNW 7.3 mph 11.5 mph 75.4% 0.00 in 0 W/m2
04:54 41.8 °F 34.8 °F 30.07 in WNW 6.4 mph 11.5 mph 76% 0.00 in 0 W/m2
04:58 41.5 °F 34.8 °F 30.07 in WNW 6 mph 11.5 mph 77% 0.00 in 0 W/m2
Peotne Weather
Compliments of Weather Underground - 4 mb